sensor_id;sensor_type;location;lat;lon;timestamp;temperature;humidity
55313;DHT22;46892;45.668;11.756;2024-02-15T00:01:04;5.10;83.80
55313;DHT22;46892;45.668;11.756;2024-02-15T00:03:30;5.10;84.00
55313;DHT22;46892;45.668;11.756;2024-02-15T00:05:57;5.20;83.80
55313;DHT22;46892;45.668;11.756;2024-02-15T00:08:23;5.20;84.00
55313;DHT22;46892;45.668;11.756;2024-02-15T00:10:50;5.10;84.50
55313;DHT22;46892;45.668;11.756;2024-02-15T00:13:15;5.20;84.20
55313;DHT22;46892;45.668;11.756;2024-02-15T00:15:41;5.20;84.10
55313;DHT22;46892;45.668;11.756;2024-02-15T00:18:07;5.30;84.40
55313;DHT22;46892;45.668;11.756;2024-02-15T00:20:33;5.30;83.60
55313;DHT22;46892;45.668;11.756;2024-02-15T00:23:01;5.30;83.50
55313;DHT22;46892;45.668;11.756;2024-02-15T00:25:27;5.30;82.70
55313;DHT22;46892;45.668;11.756;2024-02-15T00:27:53;5.10;81.50
55313;DHT22;46892;45.668;11.756;2024-02-15T00:30:18;4.80;83.00
55313;DHT22;46892;45.668;11.756;2024-02-15T00:32:44;4.60;84.20
55313;DHT22;46892;45.668;11.756;2024-02-15T00:35:13;4.60;84.40
55313;DHT22;46892;45.668;11.756;2024-02-15T00:37:40;4.60;84.80
55313;DHT22;46892;45.668;11.756;2024-02-15T00:40:07;4.50;85.20
55313;DHT22;46892;45.668;11.756;2024-02-15T00:42:33;4.40;85.30
55313;DHT22;46892;45.668;11.756;2024-02-15T00:44:58;4.30;86.30
55313;DHT22;46892;45.668;11.756;2024-02-15T00:47:24;4.30;86.60
55313;DHT22;46892;45.668;11.756;2024-02-15T00:49:50;4.40;86.50
55313;DHT22;46892;45.668;11.756;2024-02-15T00:52:16;4.50;86.40
55313;DHT22;46892;45.668;11.756;2024-02-15T00:54:48;4.50;86.70
55313;DHT22;46892;45.668;11.756;2024-02-15T00:57:14;4.60;86.70
55313;DHT22;46892;45.668;11.756;2024-02-15T00:59:39;4.60;86.40
55313;DHT22;46892;45.668;11.756;2024-02-15T01:02:05;4.60;85.80
55313;DHT22;46892;45.668;11.756;2024-02-15T01:04:31;4.70;86.40
55313;DHT22;46892;45.668;11.756;2024-02-15T01:06:57;4.70;86.40
55313;DHT22;46892;45.668;11.756;2024-02-15T01:09:22;4.70;86.30
55313;DHT22;46892;45.668;11.756;2024-02-15T01:11:48;4.80;85.80
55313;DHT22;46892;45.668;11.756;2024-02-15T01:14:14;4.90;85.00
55313;DHT22;46892;45.668;11.756;2024-02-15T01:16:41;4.90;84.60
55313;DHT22;46892;45.668;11.756;2024-02-15T01:19:07;4.80;84.80
55313;DHT22;46892;45.668;11.756;2024-02-15T01:21:33;4.80;84.80
55313;DHT22;46892;45.668;11.756;2024-02-15T01:23:59;4.80;85.20
55313;DHT22;46892;45.668;11.756;2024-02-15T01:26:26;4.90;85.20
55313;DHT22;46892;45.668;11.756;2024-02-15T01:28:52;4.90;84.90
55313;DHT22;46892;45.668;11.756;2024-02-15T01:31:18;4.90;84.40
55313;DHT22;46892;45.668;11.756;2024-02-15T01:33:44;4.90;82.80
55313;DHT22;46892;45.668;11.756;2024-02-15T01:36:17;4.80;84.30
55313;DHT22;46892;45.668;11.756;2024-02-15T01:38:43;4.90;84.80
55313;DHT22;46892;45.668;11.756;2024-02-15T01:41:09;5.00;83.80
55313;DHT22;46892;45.668;11.756;2024-02-15T01:43:35;5.00;83.30
55313;DHT22;46892;45.668;11.756;2024-02-15T01:46:07;5.00;82.70
55313;DHT22;46892;45.668;11.756;2024-02-15T01:48:35;4.90;83.00
55313;DHT22;46892;45.668;11.756;2024-02-15T01:51:01;5.00;83.90
55313;DHT22;46892;45.668;11.756;2024-02-15T01:53:29;5.00;83.50
55313;DHT22;46892;45.668;11.756;2024-02-15T01:55:56;5.00;82.60
55313;DHT22;46892;45.668;11.756;2024-02-15T01:58:27;4.90;82.90
55313;DHT22;46892;45.668;11.756;2024-02-15T02:00:53;4.80;83.40
55313;DHT22;46892;45.668;11.756;2024-02-15T02:03:22;4.70;83.10
55313;DHT22;46892;45.668;11.756;2024-02-15T02:05:47;4.60;83.50
55313;DHT22;46892;45.668;11.756;2024-02-15T02:08:13;4.60;83.70
55313;DHT22;46892;45.668;11.756;2024-02-15T02:10:39;4.40;83.80
55313;DHT22;46892;45.668;11.756;2024-02-15T02:13:05;4.30;85.10
55313;DHT22;46892;45.668;11.756;2024-02-15T02:15:32;4.30;85.90
55313;DHT22;46892;45.668;11.756;2024-02-15T02:17:58;4.50;86.70
55313;DHT22;46892;45.668;11.756;2024-02-15T02:20:26;4.60;86.10
55313;DHT22;46892;45.668;11.756;2024-02-15T02:22:54;4.60;85.30
55313;DHT22;46892;45.668;11.756;2024-02-15T02:25:24;4.60;85.10
55313;DHT22;46892;45.668;11.756;2024-02-15T02:27:52;4.50;85.20
55313;DHT22;46892;45.668;11.756;2024-02-15T02:30:18;4.60;85.50
55313;DHT22;46892;45.668;11.756;2024-02-15T02:32:47;4.60;85.50
55313;DHT22;46892;45.668;11.756;2024-02-15T02:35:13;4.60;85.30
55313;DHT22;46892;45.668;11.756;2024-02-15T02:37:39;4.60;85.40
55313;DHT22;46892;45.668;11.756;2024-02-15T02:40:06;4.70;85.40
55313;DHT22;46892;45.668;11.756;2024-02-15T02:42:52;4.70;85.40
55313;DHT22;46892;45.668;11.756;2024-02-15T02:45:19;4.70;85.50
55313;DHT22;46892;45.668;11.756;2024-02-15T02:47:46;4.70;85.40
55313;DHT22;46892;45.668;11.756;2024-02-15T02:50:13;4.70;85.40
55313;DHT22;46892;45.668;11.756;2024-02-15T02:52:39;4.80;85.50
55313;DHT22;46892;45.668;11.756;2024-02-15T02:55:06;4.80;85.20
55313;DHT22;46892;45.668;11.756;2024-02-15T02:57:38;4.70;85.70
55313;DHT22;46892;45.668;11.756;2024-02-15T03:00:09;4.70;85.90
55313;DHT22;46892;45.668;11.756;2024-02-15T03:02:38;4.80;85.40
55313;DHT22;46892;45.668;11.756;2024-02-15T03:05:05;4.70;85.10
55313;DHT22;46892;45.668;11.756;2024-02-15T03:07:35;4.70;85.30
55313;DHT22;46892;45.668;11.756;2024-02-15T03:10:05;4.70;85.30
55313;DHT22;46892;45.668;11.756;2024-02-15T03:12:34;4.70;85.30
55313;DHT22;46892;45.668;11.756;2024-02-15T03:15:04;4.70;85.90
55313;DHT22;46892;45.668;11.756;2024-02-15T03:17:33;4.70;86.10
55313;DHT22;46892;45.668;11.756;2024-02-15T03:19:59;4.70;86.20
55313;DHT22;46892;45.668;11.756;2024-02-15T03:22:25;4.80;86.30
55313;DHT22;46892;45.668;11.756;2024-02-15T03:24:51;4.90;85.10
55313;DHT22;46892;45.668;11.756;2024-02-15T03:27:17;4.80;84.70
55313;DHT22;46892;45.668;11.756;2024-02-15T03:29:43;4.80;84.40
55313;DHT22;46892;45.668;11.756;2024-02-15T03:32:09;4.90;84.80
55313;DHT22;46892;45.668;11.756;2024-02-15T03:34:36;4.90;84.10
55313;DHT22;46892;45.668;11.756;2024-02-15T03:37:05;4.80;83.80
55313;DHT22;46892;45.668;11.756;2024-02-15T03:39:30;4.80;83.90
55313;DHT22;46892;45.668;11.756;2024-02-15T03:41:58;4.70;84.30
55313;DHT22;46892;45.668;11.756;2024-02-15T03:44:24;4.70;83.90
55313;DHT22;46892;45.668;11.756;2024-02-15T03:46:52;4.60;83.70
55313;DHT22;46892;45.668;11.756;2024-02-15T03:49:18;4.50;83.80
55313;DHT22;46892;45.668;11.756;2024-02-15T03:51:44;4.30;84.40
55313;DHT22;46892;45.668;11.756;2024-02-15T03:54:13;4.10;85.10
55313;DHT22;46892;45.668;11.756;2024-02-15T03:56:49;4.00;85.60
55313;DHT22;46892;45.668;11.756;2024-02-15T03:59:20;4.10;86.00
55313;DHT22;46892;45.668;11.756;2024-02-15T04:01:53;4.20;85.90
55313;DHT22;46892;45.668;11.756;2024-02-15T04:04:19;4.40;86.50
55313;DHT22;46892;45.668;11.756;2024-02-15T04:06:51;4.50;85.30
55313;DHT22;46892;45.668;11.756;2024-02-15T04:09:17;4.40;83.80
55313;DHT22;46892;45.668;11.756;2024-02-15T04:11:47;4.30;83.90
55313;DHT22;46892;45.668;11.756;2024-02-15T04:14:18;4.30;84.30
55313;DHT22;46892;45.668;11.756;2024-02-15T04:16:45;4.30;84.50
55313;DHT22;46892;45.668;11.756;2024-02-15T04:19:11;4.30;84.90
55313;DHT22;46892;45.668;11.756;2024-02-15T04:21:37;4.30;85.20
55313;DHT22;46892;45.668;11.756;2024-02-15T04:24:04;4.30;85.00
55313;DHT22;46892;45.668;11.756;2024-02-15T04:26:30;4.30;85.40
55313;DHT22;46892;45.668;11.756;2024-02-15T04:28:57;4.30;85.70
55313;DHT22;46892;45.668;11.756;2024-02-15T04:31:24;4.30;85.70
55313;DHT22;46892;45.668;11.756;2024-02-15T04:33:55;4.20;85.10
55313;DHT22;46892;45.668;11.756;2024-02-15T04:36:22;4.30;85.00
55313;DHT22;46892;45.668;11.756;2024-02-15T04:38:52;4.20;84.70
55313;DHT22;46892;45.668;11.756;2024-02-15T04:41:18;4.30;85.20
55313;DHT22;46892;45.668;11.756;2024-02-15T04:43:49;4.30;84.60
55313;DHT22;46892;45.668;11.756;2024-02-15T04:46:14;4.10;84.10
55313;DHT22;46892;45.668;11.756;2024-02-15T04:48:41;4.20;85.50
55313;DHT22;46892;45.668;11.756;2024-02-15T04:51:10;4.20;85.00
55313;DHT22;46892;45.668;11.756;2024-02-15T04:53:36;4.40;85.70
55313;DHT22;46892;45.668;11.756;2024-02-15T04:56:07;4.40;84.00
55313;DHT22;46892;45.668;11.756;2024-02-15T04:58:40;4.30;83.20
55313;DHT22;46892;45.668;11.756;2024-02-15T05:01:16;4.30;83.80
55313;DHT22;46892;45.668;11.756;2024-02-15T05:03:43;4.20;83.10
55313;DHT22;46892;45.668;11.756;2024-02-15T05:06:09;3.90;83.70
55313;DHT22;46892;45.668;11.756;2024-02-15T05:08:38;3.80;84.20
55313;DHT22;46892;45.668;11.756;2024-02-15T05:11:13;3.80;84.80
55313;DHT22;46892;45.668;11.756;2024-02-15T05:13:47;3.80;85.30
55313;DHT22;46892;45.668;11.756;2024-02-15T05:16:16;3.80;85.70
55313;DHT22;46892;45.668;11.756;2024-02-15T05:18:42;3.90;85.30
55313;DHT22;46892;45.668;11.756;2024-02-15T05:21:08;3.90;84.30
55313;DHT22;46892;45.668;11.756;2024-02-15T05:23:35;3.90;84.30
55313;DHT22;46892;45.668;11.756;2024-02-15T05:26:02;3.80;83.50
55313;DHT22;46892;45.668;11.756;2024-02-15T05:28:29;3.70;83.20
55313;DHT22;46892;45.668;11.756;2024-02-15T05:31:11;3.60;83.70
55313;DHT22;46892;45.668;11.756;2024-02-15T05:33:40;3.50;84.40
55313;DHT22;46892;45.668;11.756;2024-02-15T05:36:16;3.50;85.00
55313;DHT22;46892;45.668;11.756;2024-02-15T05:38:46;3.60;85.00
55313;DHT22;46892;45.668;11.756;2024-02-15T05:41:12;3.50;84.80
55313;DHT22;46892;45.668;11.756;2024-02-15T05:43:39;3.30;85.20
55313;DHT22;46892;45.668;11.756;2024-02-15T05:46:05;3.40;85.80
55313;DHT22;46892;45.668;11.756;2024-02-15T05:48:34;3.50;85.60
55313;DHT22;46892;45.668;11.756;2024-02-15T05:51:05;3.50;85.30
55313;DHT22;46892;45.668;11.756;2024-02-15T05:53:32;3.40;85.10
55313;DHT22;46892;45.668;11.756;2024-02-15T05:56:02;3.30;85.30
55313;DHT22;46892;45.668;11.756;2024-02-15T05:58:33;3.30;85.70
55313;DHT22;46892;45.668;11.756;2024-02-15T06:00:59;3.40;86.30
55313;DHT22;46892;45.668;11.756;2024-02-15T06:03:28;3.40;86.80
55313;DHT22;46892;45.668;11.756;2024-02-15T06:05:55;3.40;85.60
55313;DHT22;46892;45.668;11.756;2024-02-15T06:08:28;3.30;86.10
55313;DHT22;46892;45.668;11.756;2024-02-15T06:10:55;3.30;86.50
55313;DHT22;46892;45.668;11.756;2024-02-15T06:13:25;3.30;86.60
55313;DHT22;46892;45.668;11.756;2024-02-15T06:15:51;3.30;86.30
55313;DHT22;46892;45.668;11.756;2024-02-15T06:20:52;3.30;86.70
55313;DHT22;46892;45.668;11.756;2024-02-15T06:23:18;3.30;85.90
55313;DHT22;46892;45.668;11.756;2024-02-15T06:25:47;3.30;86.40
55313;DHT22;46892;45.668;11.756;2024-02-15T06:28:14;3.30;86.00
55313;DHT22;46892;45.668;11.756;2024-02-15T06:31:00;3.30;86.00
55313;DHT22;46892;45.668;11.756;2024-02-15T06:33:44;3.40;85.70
55313;DHT22;46892;45.668;11.756;2024-02-15T06:36:28;3.50;86.20
55313;DHT22;46892;45.668;11.756;2024-02-15T06:39:13;3.60;85.90
55313;DHT22;46892;45.668;11.756;2024-02-15T06:41:57;3.70;86.30
55313;DHT22;46892;45.668;11.756;2024-02-15T06:44:23;3.80;86.20
55313;DHT22;46892;45.668;11.756;2024-02-15T06:46:50;3.80;84.40
55313;DHT22;46892;45.668;11.756;2024-02-15T06:49:16;3.80;85.60
55313;DHT22;46892;45.668;11.756;2024-02-15T06:51:42;3.80;85.60
55313;DHT22;46892;45.668;11.756;2024-02-15T06:54:10;3.90;85.00
55313;DHT22;46892;45.668;11.756;2024-02-15T06:56:39;3.90;85.40
55313;DHT22;46892;45.668;11.756;2024-02-15T06:59:09;4.00;84.90
55313;DHT22;46892;45.668;11.756;2024-02-15T07:01:35;4.10;84.40
55313;DHT22;46892;45.668;11.756;2024-02-15T07:04:03;4.00;84.10
55313;DHT22;46892;45.668;11.756;2024-02-15T07:06:29;4.00;84.10
55313;DHT22;46892;45.668;11.756;2024-02-15T07:08:57;4.00;84.40
55313;DHT22;46892;45.668;11.756;2024-02-15T07:11:23;3.80;84.30
55313;DHT22;46892;45.668;11.756;2024-02-15T07:13:49;3.50;84.60
55313;DHT22;46892;45.668;11.756;2024-02-15T07:16:18;3.40;85.60
55313;DHT22;46892;45.668;11.756;2024-02-15T07:56:10;7.50;81.50
55313;DHT22;46892;45.668;11.756;2024-02-15T07:58:40;7.80;80.40
55313;DHT22;46892;45.668;11.756;2024-02-15T08:01:12;8.10;81.10
55313;DHT22;46892;45.668;11.756;2024-02-15T08:03:38;8.30;80.30
55313;DHT22;46892;45.668;11.756;2024-02-15T08:06:10;8.50;79.40
55313;DHT22;46892;45.668;11.756;2024-02-15T08:08:41;8.40;78.60
55313;DHT22;46892;45.668;11.756;2024-02-15T08:11:08;8.60;78.30
55313;DHT22;46892;45.668;11.756;2024-02-15T08:13:47;8.50;78.20
55313;DHT22;46892;45.668;11.756;2024-02-15T08:16:15;8.50;77.10
55313;DHT22;46892;45.668;11.756;2024-02-15T08:18:43;8.40;77.50
55313;DHT22;46892;45.668;11.756;2024-02-15T08:21:12;8.30;77.70
55313;DHT22;46892;45.668;11.756;2024-02-15T08:23:38;8.20;78.10
55313;DHT22;46892;45.668;11.756;2024-02-15T08:26:04;8.30;82.20
55313;DHT22;46892;45.668;11.756;2024-02-15T08:28:30;8.70;80.90
55313;DHT22;46892;45.668;11.756;2024-02-15T08:30:56;8.80;79.90
55313;DHT22;46892;45.668;11.756;2024-02-15T08:33:23;9.10;78.70
55313;DHT22;46892;45.668;11.756;2024-02-15T08:35:52;9.10;78.70
55313;DHT22;46892;45.668;11.756;2024-02-15T08:38:22;9.30;77.90
55313;DHT22;46892;45.668;11.756;2024-02-15T08:40:48;9.40;77.50
55313;DHT22;46892;45.668;11.756;2024-02-15T08:43:14;9.60;77.90
55313;DHT22;46892;45.668;11.756;2024-02-15T08:45:41;9.80;79.30
55313;DHT22;46892;45.668;11.756;2024-02-15T08:48:07;9.80;76.90
55313;DHT22;46892;45.668;11.756;2024-02-15T08:50:33;10.10;75.80
55313;DHT22;46892;45.668;11.756;2024-02-15T08:52:59;10.00;77.40
55313;DHT22;46892;45.668;11.756;2024-02-15T08:55:25;10.10;76.00
55313;DHT22;46892;45.668;11.756;2024-02-15T08:57:53;10.10;75.30
55313;DHT22;46892;45.668;11.756;2024-02-15T09:00:20;10.10;74.30
55313;DHT22;46892;45.668;11.756;2024-02-15T09:02:46;9.90;73.70
55313;DHT22;46892;45.668;11.756;2024-02-15T09:05:15;9.80;73.60
55313;DHT22;46892;45.668;11.756;2024-02-15T09:07:42;9.60;74.70
55313;DHT22;46892;45.668;11.756;2024-02-15T09:10:09;9.60;77.60
55313;DHT22;46892;45.668;11.756;2024-02-15T09:12:38;9.70;79.70
55313;DHT22;46892;45.668;11.756;2024-02-15T09:15:06;10.10;76.80
55313;DHT22;46892;45.668;11.756;2024-02-15T09:17:33;10.30;77.20
55313;DHT22;46892;45.668;11.756;2024-02-15T09:20:06;10.40;76.00
55313;DHT22;46892;45.668;11.756;2024-02-15T09:22:33;10.30;73.10
55313;DHT22;46892;45.668;11.756;2024-02-15T09:24:58;10.10;72.80
55313;DHT22;46892;45.668;11.756;2024-02-15T09:27:24;9.90;73.20
55313;DHT22;46892;45.668;11.756;2024-02-15T09:29:50;9.80;73.80
55313;DHT22;46892;45.668;11.756;2024-02-15T09:32:16;9.70;74.20
55313;DHT22;46892;45.668;11.756;2024-02-15T09:34:41;9.70;73.40
55313;DHT22;46892;45.668;11.756;2024-02-15T09:37:07;9.70;75.30
55313;DHT22;46892;45.668;11.756;2024-02-15T09:39:33;9.60;75.00
55313;DHT22;46892;45.668;11.756;2024-02-15T09:42:00;9.60;74.60
55313;DHT22;46892;45.668;11.756;2024-02-15T09:44:26;9.90;78.90
55313;DHT22;46892;45.668;11.756;2024-02-15T09:47:03;10.10;75.80
55313;DHT22;46892;45.668;11.756;2024-02-15T09:49:37;10.30;74.00
55313;DHT22;46892;45.668;11.756;2024-02-15T09:52:07;10.40;72.90
55313;DHT22;46892;45.668;11.756;2024-02-15T09:54:40;10.50;72.40
55313;DHT22;46892;45.668;11.756;2024-02-15T09:57:09;10.50;72.20
55313;DHT22;46892;45.668;11.756;2024-02-15T09:59:38;10.50;71.50
55313;DHT22;46892;45.668;11.756;2024-02-15T10:02:05;10.40;71.50
55313;DHT22;46892;45.668;11.756;2024-02-15T10:04:39;10.30;72.30
55313;DHT22;46892;45.668;11.756;2024-02-15T10:07:05;10.20;72.90
55313;DHT22;46892;45.668;11.756;2024-02-15T10:09:31;10.20;72.30
55313;DHT22;46892;45.668;11.756;2024-02-15T10:12:00;10.30;71.30
55313;DHT22;46892;45.668;11.756;2024-02-15T10:14:26;10.50;71.40
55313;DHT22;46892;45.668;11.756;2024-02-15T10:16:53;10.60;71.00
55313;DHT22;46892;45.668;11.756;2024-02-15T10:19:23;10.50;71.10
55313;DHT22;46892;45.668;11.756;2024-02-15T10:21:54;10.60;71.70
55313;DHT22;46892;45.668;11.756;2024-02-15T10:24:24;10.80;73.20
55313;DHT22;46892;45.668;11.756;2024-02-15T10:26:50;10.90;71.80
55313;DHT22;46892;45.668;11.756;2024-02-15T10:29:16;11.00;69.50
55313;DHT22;46892;45.668;11.756;2024-02-15T10:32:02;11.10;69.60
55313;DHT22;46892;45.668;11.756;2024-02-15T10:34:30;11.20;69.60
55313;DHT22;46892;45.668;11.756;2024-02-15T10:37:15;11.20;69.60
55313;DHT22;46892;45.668;11.756;2024-02-15T10:39:45;11.30;69.20
55313;DHT22;46892;45.668;11.756;2024-02-15T10:42:13;11.20;68.40
55313;DHT22;46892;45.668;11.756;2024-02-15T10:44:39;11.20;69.50
55313;DHT22;46892;45.668;11.756;2024-02-15T10:47:06;11.20;70.70
55313;DHT22;46892;45.668;11.756;2024-02-15T10:49:34;11.30;67.90
55313;DHT22;46892;45.668;11.756;2024-02-15T10:52:01;11.40;69.20
55313;DHT22;46892;45.668;11.756;2024-02-15T10:57:04;11.40;67.90
55313;DHT22;46892;45.668;11.756;2024-02-15T10:59:34;11.40;67.80
55313;DHT22;46892;45.668;11.756;2024-02-15T11:02:15;11.40;68.50
55313;DHT22;46892;45.668;11.756;2024-02-15T11:04:47;11.50;65.70
55313;DHT22;46892;45.668;11.756;2024-02-15T11:07:15;11.50;66.00
55313;DHT22;46892;45.668;11.756;2024-02-15T11:09:41;11.50;66.10
55313;DHT22;46892;45.668;11.756;2024-02-15T11:12:07;11.50;65.90
55313;DHT22;46892;45.668;11.756;2024-02-15T11:14:35;11.50;66.00
55313;DHT22;46892;45.668;11.756;2024-02-15T11:17:02;11.50;66.90
55313;DHT22;46892;45.668;11.756;2024-02-15T11:22:09;11.70;66.90
55313;DHT22;46892;45.668;11.756;2024-02-15T11:24:36;11.80;65.80
55313;DHT22;46892;45.668;11.756;2024-02-15T11:27:06;12.10;64.50
55313;DHT22;46892;45.668;11.756;2024-02-15T11:35:21;12.30;66.90
55313;DHT22;46892;45.668;11.756;2024-02-15T11:40:16;12.30;66.00
55313;DHT22;46892;45.668;11.756;2024-02-15T11:42:43;12.30;64.70
55313;DHT22;46892;45.668;11.756;2024-02-15T11:45:09;12.20;63.90
55313;DHT22;46892;45.668;11.756;2024-02-15T11:47:40;12.20;65.30
55313;DHT22;46892;45.668;11.756;2024-02-15T11:50:10;12.30;64.50
55313;DHT22;46892;45.668;11.756;2024-02-15T11:52:41;12.30;65.00
55313;DHT22;46892;45.668;11.756;2024-02-15T11:55:08;12.40;66.80
55313;DHT22;46892;45.668;11.756;2024-02-15T11:57:42;12.30;66.30
55313;DHT22;46892;45.668;11.756;2024-02-15T12:00:23;12.40;65.70
55313;DHT22;46892;45.668;11.756;2024-02-15T12:03:07;12.40;66.10
55313;DHT22;46892;45.668;11.756;2024-02-15T12:05:52;12.50;66.20
55313;DHT22;46892;45.668;11.756;2024-02-15T12:08:37;12.60;67.00
55313;DHT22;46892;45.668;11.756;2024-02-15T12:11:21;12.60;66.40
55313;DHT22;46892;45.668;11.756;2024-02-15T12:14:05;12.70;66.20
55313;DHT22;46892;45.668;11.756;2024-02-15T12:17:03;12.80;67.70
55313;DHT22;46892;45.668;11.756;2024-02-15T12:19:49;13.00;64.60
55313;DHT22;46892;45.668;11.756;2024-02-15T12:22:20;13.00;63.10
55313;DHT22;46892;45.668;11.756;2024-02-15T12:24:57;13.00;64.20
55313;DHT22;46892;45.668;11.756;2024-02-15T12:27:24;13.10;65.10
55313;DHT22;46892;45.668;11.756;2024-02-15T12:29:58;13.20;65.40
55313;DHT22;46892;45.668;11.756;2024-02-15T12:32:28;13.20;65.90
55313;DHT22;46892;45.668;11.756;2024-02-15T12:35:09;13.20;65.60
55313;DHT22;46892;45.668;11.756;2024-02-15T12:37:38;13.30;66.80
55313;DHT22;46892;45.668;11.756;2024-02-15T12:40:19;13.30;65.60
55313;DHT22;46892;45.668;11.756;2024-02-15T12:42:47;13.30;65.30
55313;DHT22;46892;45.668;11.756;2024-02-15T12:45:17;13.40;65.40
55313;DHT22;46892;45.668;11.756;2024-02-15T12:47:47;13.40;63.80
55313;DHT22;46892;45.668;11.756;2024-02-15T12:50:14;13.40;64.00
55313;DHT22;46892;45.668;11.756;2024-02-15T12:52:40;13.50;64.60
55313;DHT22;46892;45.668;11.756;2024-02-15T12:55:15;13.50;66.40
55313;DHT22;46892;45.668;11.756;2024-02-15T12:57:43;13.50;65.80
55313;DHT22;46892;45.668;11.756;2024-02-15T13:00:14;13.50;66.00
55313;DHT22;46892;45.668;11.756;2024-02-15T13:02:44;13.60;65.30
55313;DHT22;46892;45.668;11.756;2024-02-15T13:05:10;13.70;65.00
55313;DHT22;46892;45.668;11.756;2024-02-15T13:07:37;13.60;63.50
55313;DHT22;46892;45.668;11.756;2024-02-15T13:10:06;13.60;63.00
55313;DHT22;46892;45.668;11.756;2024-02-15T13:12:34;13.40;62.60
55313;DHT22;46892;45.668;11.756;2024-02-15T13:15:06;13.40;64.00
55313;DHT22;46892;45.668;11.756;2024-02-15T13:17:37;13.40;66.30
55313;DHT22;46892;45.668;11.756;2024-02-15T13:20:04;13.40;66.40
55313;DHT22;46892;45.668;11.756;2024-02-15T13:22:31;13.50;65.80
55313;DHT22;46892;45.668;11.756;2024-02-15T13:24:57;13.50;65.90
55313;DHT22;46892;45.668;11.756;2024-02-15T13:27:23;13.50;66.10
55313;DHT22;46892;45.668;11.756;2024-02-15T13:29:50;13.50;67.50
55313;DHT22;46892;45.668;11.756;2024-02-15T13:32:16;13.60;67.40
55313;DHT22;46892;45.668;11.756;2024-02-15T13:34:42;13.60;66.40
55313;DHT22;46892;45.668;11.756;2024-02-15T13:37:10;13.70;66.00
55313;DHT22;46892;45.668;11.756;2024-02-15T13:39:36;13.70;66.90
55313;DHT22;46892;45.668;11.756;2024-02-15T13:42:04;13.70;67.20
55313;DHT22;46892;45.668;11.756;2024-02-15T13:44:29;13.70;67.70
55313;DHT22;46892;45.668;11.756;2024-02-15T13:46:57;13.80;67.80
55313;DHT22;46892;45.668;11.756;2024-02-15T13:49:23;13.70;67.30
55313;DHT22;46892;45.668;11.756;2024-02-15T13:51:48;13.70;66.20
55313;DHT22;46892;45.668;11.756;2024-02-15T13:54:17;13.70;66.10
55313;DHT22;46892;45.668;11.756;2024-02-15T13:56:43;13.70;67.00
55313;DHT22;46892;45.668;11.756;2024-02-15T13:59:09;13.80;65.10
55313;DHT22;46892;45.668;11.756;2024-02-15T14:01:35;13.80;65.30
55313;DHT22;46892;45.668;11.756;2024-02-15T14:04:08;13.70;65.70
55313;DHT22;46892;45.668;11.756;2024-02-15T14:06:35;13.70;66.50
55313;DHT22;46892;45.668;11.756;2024-02-15T14:09:03;13.60;66.90
55313;DHT22;46892;45.668;11.756;2024-02-15T14:11:28;13.60;67.10
55313;DHT22;46892;45.668;11.756;2024-02-15T14:13:54;13.50;68.20
55313;DHT22;46892;45.668;11.756;2024-02-15T14:16:24;13.60;67.50
55313;DHT22;46892;45.668;11.756;2024-02-15T14:18:50;13.50;66.90
55313;DHT22;46892;45.668;11.756;2024-02-15T14:21:17;13.50;67.90
55313;DHT22;46892;45.668;11.756;2024-02-15T14:23:44;13.60;67.50
55313;DHT22;46892;45.668;11.756;2024-02-15T14:26:10;13.70;67.20
55313;DHT22;46892;45.668;11.756;2024-02-15T14:28:36;13.60;67.40
55313;DHT22;46892;45.668;11.756;2024-02-15T14:31:01;13.60;66.70
55313;DHT22;46892;45.668;11.756;2024-02-15T14:33:47;13.50;67.70
55313;DHT22;46892;45.668;11.756;2024-02-15T14:36:15;13.50;67.10
55313;DHT22;46892;45.668;11.756;2024-02-15T14:38:41;13.50;69.20
55313;DHT22;46892;45.668;11.756;2024-02-15T14:41:07;13.40;69.30
55313;DHT22;46892;45.668;11.756;2024-02-15T14:43:36;13.40;69.60
55313;DHT22;46892;45.668;11.756;2024-02-15T14:46:02;13.30;70.00
55313;DHT22;46892;45.668;11.756;2024-02-15T14:48:31;13.30;69.90
55313;DHT22;46892;45.668;11.756;2024-02-15T14:50:57;13.30;69.50
55313;DHT22;46892;45.668;11.756;2024-02-15T14:53:26;13.20;68.90
55313;DHT22;46892;45.668;11.756;2024-02-15T14:55:54;13.10;69.00
55313;DHT22;46892;45.668;11.756;2024-02-15T14:58:21;13.10;69.80
55313;DHT22;46892;45.668;11.756;2024-02-15T15:00:47;13.00;70.10
55313;DHT22;46892;45.668;11.756;2024-02-15T15:03:15;13.00;71.00
55313;DHT22;46892;45.668;11.756;2024-02-15T15:05:42;13.00;71.80
55313;DHT22;46892;45.668;11.756;2024-02-15T15:08:26;12.90;71.60
55313;DHT22;46892;45.668;11.756;2024-02-15T15:11:10;12.90;71.50
55313;DHT22;46892;45.668;11.756;2024-02-15T15:13:54;12.90;71.40
55313;DHT22;46892;45.668;11.756;2024-02-15T15:16:20;13.00;72.10
55313;DHT22;46892;45.668;11.756;2024-02-15T15:18:47;12.90;72.40
55313;DHT22;46892;45.668;11.756;2024-02-15T15:21:15;12.90;73.20
55313;DHT22;46892;45.668;11.756;2024-02-15T15:23:42;13.00;72.90
55313;DHT22;46892;45.668;11.756;2024-02-15T15:26:08;12.90;72.80
55313;DHT22;46892;45.668;11.756;2024-02-15T15:28:37;12.90;72.50
55313;DHT22;46892;45.668;11.756;2024-02-15T15:31:03;12.90;71.80
55313;DHT22;46892;45.668;11.756;2024-02-15T15:33:30;12.90;72.40
55313;DHT22;46892;45.668;11.756;2024-02-15T15:36:00;13.00;71.60
55313;DHT22;46892;45.668;11.756;2024-02-15T15:38:26;13.00;71.20
55313;DHT22;46892;45.668;11.756;2024-02-15T15:40:54;13.00;71.50
55313;DHT22;46892;45.668;11.756;2024-02-15T15:43:20;13.00;71.90
55313;DHT22;46892;45.668;11.756;2024-02-15T15:45:46;12.90;71.70
55313;DHT22;46892;45.668;11.756;2024-02-15T15:48:17;13.00;71.40
55313;DHT22;46892;45.668;11.756;2024-02-15T15:50:43;13.00;71.90
55313;DHT22;46892;45.668;11.756;2024-02-15T15:53:09;12.90;72.50
55313;DHT22;46892;45.668;11.756;2024-02-15T15:55:36;12.80;73.30
55313;DHT22;46892;45.668;11.756;2024-02-15T15:58:02;12.90;72.80
55313;DHT22;46892;45.668;11.756;2024-02-15T16:00:28;12.80;73.20
55313;DHT22;46892;45.668;11.756;2024-02-15T16:02:54;12.70;73.50
55313;DHT22;46892;45.668;11.756;2024-02-15T16:05:23;12.70;73.80
55313;DHT22;46892;45.668;11.756;2024-02-15T16:07:49;12.60;74.00
55313;DHT22;46892;45.668;11.756;2024-02-15T16:10:16;12.50;74.10
55313;DHT22;46892;45.668;11.756;2024-02-15T16:12:44;12.40;74.40
55313;DHT22;46892;45.668;11.756;2024-02-15T16:15:11;12.30;74.70
55313;DHT22;46892;45.668;11.756;2024-02-15T16:17:39;12.30;74.90
55313;DHT22;46892;45.668;11.756;2024-02-15T16:20:08;12.20;75.10
55313;DHT22;46892;45.668;11.756;2024-02-15T16:22:38;12.20;75.30
55313;DHT22;46892;45.668;11.756;2024-02-15T16:25:07;12.20;75.50
55313;DHT22;46892;45.668;11.756;2024-02-15T16:27:41;12.10;75.70